createdAt,value
2023-05-19T00:00:03.349Z,171.74
2023-05-19T00:01:03.616Z,169.77
2023-05-19T00:02:03.486Z,172.60
2023-05-19T00:03:03.639Z,172.89
2023-05-19T00:04:03.514Z,170.90
2023-05-19T00:05:03.567Z,174.26
2023-05-19T00:06:03.661Z,172.65
2023-05-19T00:07:03.650Z,170.33
2023-05-19T00:08:03.710Z,171.56
2023-05-19T00:09:03.792Z,172.78
2023-05-19T00:10:03.802Z,174.19
2023-05-19T00:11:03.862Z,174.38
2023-05-19T00:12:03.891Z,173.71
2023-05-19T00:13:03.914Z,175.26
2023-05-19T00:14:03.966Z,174.84
2023-05-19T00:15:04.032Z,174.75
2023-05-19T00:16:04.121Z,176.19
2023-05-19T00:17:04.110Z,174.62
2023-05-19T00:18:04.191Z,174.70
2023-05-19T00:19:04.227Z,175.26
2023-05-19T00:20:04.197Z,172.68
2023-05-19T00:21:04.253Z,176.11
2023-05-19T00:22:04.291Z,178.73
2023-05-19T00:23:04.282Z,178.07
2023-05-19T00:24:04.313Z,180.29
2023-05-19T00:25:04.344Z,179.96
2023-05-19T00:26:04.385Z,178.71
2023-05-19T00:27:04.383Z,180.69
2023-05-19T00:28:04.424Z,180.92
2023-05-19T00:29:04.456Z,181.23
2023-05-19T00:30:04.562Z,183.65
2023-05-19T00:31:04.490Z,181.18
2023-05-19T00:32:04.516Z,182.08
2023-05-19T00:33:04.553Z,181.87
2023-05-19T00:34:04.525Z,179.90
2023-05-19T00:35:04.538Z,177.10
2023-05-19T00:36:04.576Z,179.49
2023-05-19T00:37:04.576Z,182.50
2023-05-19T00:38:04.593Z,183.73
2023-05-19T00:39:04.620Z,185.73
2023-05-19T00:40:04.661Z,186.19
2023-05-19T00:41:04.725Z,186.75
2023-05-19T00:42:04.749Z,189.93
2023-05-19T00:43:04.792Z,189.42
2023-05-19T00:44:04.812Z,189.73
2023-05-19T00:45:04.853Z,192.27
2023-05-19T00:46:04.926Z,190.43
2023-05-19T00:47:05.000Z,193.13
2023-05-19T00:48:04.984Z,193.60
2023-05-19T00:49:04.991Z,190.40
2023-05-19T00:50:04.988Z,192.53
2023-05-19T00:51:05.030Z,190.45
2023-05-19T00:52:05.035Z,192.70
2023-05-19T00:53:05.041Z,192.05
2023-05-19T00:54:05.085Z,194.18
2023-05-19T00:55:05.128Z,193.68
2023-05-19T00:56:05.181Z,192.31
2023-05-19T00:57:05.223Z,195.52
2023-05-19T00:58:05.252Z,194.16
2023-05-19T00:59:05.285Z,193.01
2023-05-19T01:00:05.319Z,195.15
2023-05-19T01:01:05.495Z,195.56
2023-05-19T01:02:05.387Z,194.78
2023-05-19T01:03:05.520Z,195.72
2023-05-19T01:04:05.679Z,194.58
2023-05-19T01:05:05.490Z,199.99
2023-05-19T01:06:05.553Z,197.98
2023-05-19T01:07:05.582Z,198.99
2023-05-19T01:08:05.613Z,199.83
2023-05-19T01:09:05.669Z,203.71
2023-05-19T01:10:05.714Z,201.03
2023-05-19T01:11:05.762Z,198.19
2023-05-19T01:12:05.796Z,200.70
2023-05-19T01:13:05.850Z,200.27
2023-05-19T01:14:05.890Z,202.22
2023-05-19T01:15:06.047Z,207.36
2023-05-19T01:16:06.023Z,203.68
2023-05-19T01:17:06.023Z,204.13
2023-05-19T01:18:06.122Z,202.90
2023-05-19T01:19:06.175Z,206.27
2023-05-19T01:20:06.142Z,203.83
2023-05-19T01:21:06.165Z,201.68
2023-05-19T01:22:06.220Z,205.72
2023-05-19T01:23:06.268Z,207.73
2023-05-19T01:24:06.309Z,208.97
2023-05-19T01:25:06.373Z,213.10
2023-05-19T01:26:06.409Z,207.72
2023-05-19T01:27:06.485Z,210.96
2023-05-19T01:28:06.507Z,211.89
2023-05-19T01:29:06.549Z,213.47
2023-05-19T01:30:06.551Z,217.28
2023-05-19T01:31:06.581Z,216.42
2023-05-19T01:32:06.733Z,217.57
2023-05-19T01:33:06.796Z,217.41
2023-05-19T01:34:06.722Z,218.69
2023-05-19T01:35:06.747Z,218.27
2023-05-19T01:36:06.788Z,217.24
2023-05-19T01:37:06.829Z,218.84
2023-05-19T01:38:06.864Z,219.51
2023-05-19T01:39:06.936Z,223.06
2023-05-19T01:40:06.942Z,223.45
2023-05-19T01:41:07.008Z,221.68
2023-05-19T01:42:07.048Z,227.02
2023-05-19T01:43:07.157Z,224.85
2023-05-19T01:44:07.145Z,225.28
2023-05-19T01:45:07.173Z,225.74
2023-05-19T01:46:07.307Z,228.25
2023-05-19T01:47:07.242Z,227.32
2023-05-19T01:48:10.691Z,231.50
2023-05-19T01:49:07.305Z,232.50
2023-05-19T01:50:07.285Z,230.85
2023-05-19T01:51:07.288Z,230.91
2023-05-19T01:52:07.256Z,231.71
2023-05-19T01:53:07.256Z,229.58
2023-05-19T01:54:07.256Z,231.94
2023-05-19T01:55:07.231Z,234.31
2023-05-19T01:56:07.357Z,233.33
2023-05-19T01:57:07.245Z,229.56
2023-05-19T01:58:07.231Z,229.83
2023-05-19T01:59:07.225Z,229.05
2023-05-19T02:00:07.202Z,227.98
2023-05-19T02:02:07.184Z,230.17
2023-05-19T02:03:07.292Z,231.20
2023-05-19T02:04:07.211Z,233.88
2023-05-19T02:05:07.159Z,234.03
2023-05-19T02:06:07.179Z,230.62
2023-05-19T02:07:07.178Z,233.78
2023-05-19T02:08:07.183Z,234.76
2023-05-19T02:09:07.154Z,229.37
2023-05-19T02:10:07.146Z,232.47
2023-05-19T02:11:07.150Z,229.89
2023-05-19T02:12:07.122Z,233.30
2023-05-19T02:13:07.106Z,231.21
2023-05-19T02:14:07.100Z,233.30
2023-05-19T02:15:07.089Z,232.29
2023-05-19T02:16:07.101Z,234.83
2023-05-19T02:17:07.085Z,230.85
2023-05-19T02:18:07.113Z,228.76
2023-05-19T02:19:07.109Z,229.39
2023-05-19T02:20:07.074Z,231.80
2023-05-19T02:21:07.063Z,234.35
2023-05-19T02:22:07.062Z,233.91
2023-05-19T02:23:07.039Z,236.97
2023-05-19T02:24:07.032Z,239.21
2023-05-19T02:25:07.014Z,238.35
2023-05-19T02:26:07.003Z,238.45
2023-05-19T02:27:07.010Z,243.57
2023-05-19T02:28:07.055Z,243.43
2023-05-19T02:29:07.069Z,245.65
2023-05-19T02:30:07.132Z,244.08
2023-05-19T02:31:07.164Z,246.87
2023-05-19T02:32:07.241Z,241.63
2023-05-19T02:33:07.299Z,243.93
2023-05-19T02:34:07.318Z,242.90
2023-05-19T02:35:07.374Z,245.95
2023-05-19T02:36:07.412Z,243.68
2023-05-19T02:37:07.436Z,248.49
2023-05-19T02:38:07.462Z,247.94
2023-05-19T02:39:07.466Z,246.54
2023-05-19T02:40:07.495Z,247.61
2023-05-19T02:41:07.511Z,247.55
2023-05-19T02:42:07.542Z,246.35
2023-05-19T02:43:07.554Z,248.69
2023-05-19T02:44:07.607Z,245.97
2023-05-19T02:45:07.589Z,247.19
2023-05-19T02:46:07.631Z,248.58
2023-05-19T02:47:07.626Z,247.87
2023-05-19T02:48:07.704Z,248.22
2023-05-19T02:49:07.656Z,244.96
2023-05-19T02:50:07.686Z,247.87
2023-05-19T02:51:07.714Z,248.43
2023-05-19T02:52:07.810Z,248.74
2023-05-19T02:53:07.777Z,247.67
2023-05-19T02:54:07.800Z,249.28
2023-05-19T02:55:07.853Z,246.62
2023-05-19T02:56:07.901Z,244.71
2023-05-19T02:57:07.945Z,247.78
2023-05-19T02:58:07.990Z,243.84
2023-05-19T02:59:08.060Z,249.10
2023-05-19T03:00:08.054Z,247.01
2023-05-19T03:01:08.150Z,247.51
2023-05-19T03:02:08.315Z,245.09
2023-05-19T03:03:08.322Z,247.34
2023-05-19T03:04:08.295Z,245.73
2023-05-19T03:05:08.393Z,247.21
2023-05-19T03:06:08.321Z,248.83
2023-05-19T03:07:08.382Z,248.19
2023-05-19T03:08:08.414Z,248.52
2023-05-19T03:09:08.451Z,248.11
2023-05-19T03:10:08.566Z,245.59
2023-05-19T03:11:08.547Z,248.79
2023-05-19T03:12:08.576Z,247.83
2023-05-19T03:13:08.633Z,248.63
2023-05-19T03:14:08.681Z,249.92
2023-05-19T03:15:08.702Z,246.63
2023-05-19T03:16:08.827Z,248.85
2023-05-19T03:17:08.766Z,250.00
2023-05-19T03:18:08.814Z,246.50
2023-05-19T03:19:08.846Z,243.13
2023-05-19T03:20:08.814Z,244.98
2023-05-19T03:21:08.838Z,245.50
2023-05-19T03:22:08.868Z,245.77
2023-05-19T03:23:08.904Z,242.94
2023-05-19T03:24:08.962Z,247.39
2023-05-19T03:25:09.017Z,248.34
2023-05-19T03:26:09.103Z,248.27
2023-05-19T03:27:09.040Z,246.33
2023-05-19T03:28:09.036Z,246.76
2023-05-19T03:29:09.044Z,245.97
2023-05-19T03:30:09.077Z,246.28
2023-05-19T03:31:09.100Z,245.84
2023-05-19T03:32:09.164Z,247.18
2023-05-19T03:33:09.336Z,246.76
2023-05-19T03:34:09.235Z,249.62
2023-05-19T03:35:09.248Z,250.18
2023-05-19T03:36:09.329Z,247.10
2023-05-19T03:37:09.314Z,246.92
2023-05-19T03:38:09.341Z,247.56
2023-05-19T03:39:09.334Z,246.53
2023-05-19T03:40:09.327Z,249.01
2023-05-19T03:41:09.365Z,250.00
2023-05-19T03:42:09.407Z,246.41
2023-05-19T03:43:09.445Z,247.47
2023-05-19T03:44:09.499Z,246.58
2023-05-19T03:45:09.531Z,243.27
2023-05-19T03:46:09.620Z,245.38
2023-05-19T03:47:09.602Z,245.83
2023-05-19T03:48:09.707Z,244.97
2023-05-19T03:49:09.681Z,246.20
2023-05-19T03:50:09.724Z,248.77
2023-05-19T03:51:09.816Z,245.91
2023-05-19T03:52:09.807Z,249.39
2023-05-19T03:53:09.824Z,250.00
2023-05-19T03:54:09.886Z,248.28
2023-05-19T03:55:09.902Z,247.89
2023-05-19T03:56:09.966Z,248.43
2023-05-19T03:57:10.032Z,246.28
2023-05-19T03:58:10.043Z,246.97
2023-05-19T03:59:10.064Z,248.70
2023-05-19T04:00:10.092Z,248.15
2023-05-19T04:01:10.095Z,247.51
2023-05-19T04:02:10.128Z,248.54
2023-05-19T04:03:10.233Z,247.74
2023-05-19T04:04:10.190Z,250.00
2023-05-19T04:05:10.167Z,243.88
2023-05-19T04:06:10.217Z,244.26
2023-05-19T04:07:10.258Z,242.44
2023-05-19T04:08:10.316Z,242.08
2023-05-19T04:09:10.343Z,241.87
2023-05-19T04:10:10.400Z,242.71
2023-05-19T04:11:10.402Z,245.09
2023-05-19T04:12:10.472Z,242.99
2023-05-19T04:13:10.452Z,243.04
2023-05-19T04:14:10.474Z,245.70
2023-05-19T04:15:10.496Z,243.19
2023-05-19T04:16:10.577Z,242.54
2023-05-19T04:17:10.584Z,244.88
2023-05-19T04:18:10.637Z,245.91
2023-05-19T04:19:10.676Z,246.14
2023-05-19T04:20:10.586Z,242.00
2023-05-19T04:21:10.656Z,244.28
2023-05-19T04:22:10.674Z,245.33
2023-05-19T04:23:10.719Z,244.69
2023-05-19T04:24:10.763Z,246.13
2023-05-19T04:25:10.789Z,246.68
2023-05-19T04:26:10.817Z,248.36
2023-05-19T04:27:10.815Z,246.98
2023-05-19T04:28:10.835Z,247.28
2023-05-19T04:29:10.837Z,246.23
2023-05-19T04:30:10.874Z,244.76
2023-05-19T04:31:11.157Z,243.43
2023-05-19T04:32:10.968Z,244.11
2023-05-19T04:33:11.050Z,242.88
2023-05-19T04:34:11.075Z,241.42
2023-05-19T04:35:11.102Z,242.77
2023-05-19T04:36:11.195Z,238.48
2023-05-19T04:37:11.200Z,239.56
2023-05-19T04:38:11.226Z,239.36
2023-05-19T04:39:11.346Z,240.74
2023-05-19T04:40:11.338Z,241.12
2023-05-19T04:41:11.319Z,242.95
2023-05-19T04:42:11.364Z,242.51
2023-05-19T04:43:11.401Z,242.67
2023-05-19T04:44:11.409Z,243.89
2023-05-19T04:45:11.449Z,242.31
2023-05-19T04:46:13.176Z,242.55
2023-05-19T04:47:11.671Z,238.23
2023-05-19T04:48:11.542Z,238.98
2023-05-19T04:49:11.598Z,240.13
2023-05-19T04:50:11.622Z,239.95
2023-05-19T04:51:11.634Z,237.99
2023-05-19T04:52:11.680Z,238.11
2023-05-19T04:53:11.755Z,237.97
2023-05-19T04:54:11.753Z,237.41
2023-05-19T04:55:11.749Z,237.68
2023-05-19T04:56:11.812Z,235.01
2023-05-19T04:57:11.827Z,237.08
2023-05-19T04:58:11.886Z,238.41
2023-05-19T04:59:11.941Z,237.75
2023-05-19T05:00:11.949Z,240.24
2023-05-19T05:01:11.978Z,237.69
2023-05-19T05:02:12.100Z,238.76
2023-05-19T05:03:12.138Z,238.55
2023-05-19T05:04:12.168Z,236.95
2023-05-19T05:05:12.122Z,235.27
2023-05-19T05:06:12.151Z,235.78
2023-05-19T05:07:12.207Z,232.14
2023-05-19T05:08:12.226Z,229.62
2023-05-19T05:09:12.256Z,227.68
2023-05-19T05:10:12.288Z,224.95
2023-05-19T05:11:12.327Z,227.67
2023-05-19T05:12:12.340Z,224.22
2023-05-19T05:13:12.390Z,221.84
2023-05-19T05:14:12.432Z,218.80
2023-05-19T05:15:12.428Z,221.83
2023-05-19T05:16:12.551Z,220.22
2023-05-19T05:17:12.479Z,218.73
2023-05-19T05:18:12.520Z,218.79
2023-05-19T05:19:12.580Z,220.97
2023-05-19T05:20:12.574Z,220.86
2023-05-19T05:21:12.617Z,215.98
2023-05-19T05:22:12.633Z,217.39
2023-05-19T05:23:12.670Z,215.58
2023-05-19T05:24:12.694Z,219.37
2023-05-19T05:25:12.727Z,219.23
2023-05-19T05:26:12.756Z,215.32
2023-05-19T05:27:12.813Z,215.66
2023-05-19T05:28:12.849Z,220.06
2023-05-19T05:29:12.901Z,215.06
2023-05-19T05:30:12.946Z,210.82
2023-05-19T05:31:12.980Z,209.38
2023-05-19T05:32:13.122Z,210.17
2023-05-19T05:33:13.242Z,207.54
2023-05-19T05:34:13.075Z,204.56
2023-05-19T05:35:13.138Z,204.80
2023-05-19T05:36:13.174Z,205.62
2023-05-19T05:37:15.116Z,205.03
2023-05-19T05:38:13.270Z,205.61
2023-05-19T05:39:13.315Z,209.18
2023-05-19T05:40:13.320Z,208.21
2023-05-19T05:41:13.383Z,212.09
2023-05-19T05:42:13.397Z,212.05
2023-05-19T05:43:13.445Z,212.51
2023-05-19T05:44:13.510Z,212.30
2023-05-19T05:45:13.603Z,213.45
2023-05-19T05:46:13.590Z,212.73
2023-05-19T05:47:13.598Z,212.93
2023-05-19T05:48:13.646Z,211.26
2023-05-19T05:49:13.696Z,210.31
2023-05-19T05:50:13.681Z,211.09
2023-05-19T05:51:13.724Z,212.95
2023-05-19T05:52:13.729Z,210.89
2023-05-19T05:53:13.751Z,211.87
2023-05-19T05:54:13.796Z,210.99
2023-05-19T05:55:13.838Z,210.71
2023-05-19T05:56:13.860Z,208.59
2023-05-19T05:57:13.904Z,209.24
2023-05-19T05:58:13.906Z,208.12
2023-05-19T05:59:13.952Z,206.60
2023-05-19T06:00:13.954Z,208.45
2023-05-19T06:01:14.017Z,209.69
2023-05-19T06:02:14.106Z,208.35
2023-05-19T06:03:14.215Z,207.55
2023-05-19T06:04:14.079Z,213.42
2023-05-19T06:05:14.255Z,212.40
2023-05-19T06:06:14.289Z,211.21
2023-05-19T06:07:14.226Z,216.38
2023-05-19T06:08:14.205Z,213.96
2023-05-19T06:09:14.197Z,211.75
2023-05-19T06:10:14.260Z,210.98
2023-05-19T06:11:14.329Z,212.37
2023-05-19T06:12:14.332Z,216.54
2023-05-19T06:13:14.377Z,220.56
2023-05-19T06:14:14.352Z,219.18
2023-05-19T06:15:14.452Z,216.34
2023-05-19T06:16:14.477Z,217.93
2023-05-19T06:17:14.475Z,219.60
2023-05-19T06:18:14.552Z,218.63
2023-05-19T06:19:14.568Z,222.10
2023-05-19T06:20:14.552Z,217.51
2023-05-19T06:21:14.597Z,214.78
2023-05-19T06:22:14.591Z,218.25
2023-05-19T06:23:14.639Z,216.67
2023-05-19T06:24:14.609Z,218.63
2023-05-19T06:25:14.666Z,217.81
2023-05-19T06:26:14.714Z,211.27
2023-05-19T06:27:14.784Z,207.55
2023-05-19T06:28:14.819Z,209.78
2023-05-19T06:29:14.859Z,209.42
2023-05-19T06:30:14.893Z,208.58
2023-05-19T06:31:15.009Z,214.30
2023-05-19T06:32:14.913Z,214.43
2023-05-19T06:33:14.978Z,220.60
2023-05-19T06:34:14.928Z,218.42
2023-05-19T06:35:14.941Z,218.69
2023-05-19T06:36:14.942Z,219.99
2023-05-19T06:37:14.954Z,218.08
2023-05-19T06:38:14.980Z,221.82
2023-05-19T06:39:14.991Z,214.83
2023-05-19T06:40:15.008Z,222.66
2023-05-19T06:41:15.024Z,222.89
2023-05-19T06:42:15.062Z,223.87
2023-05-19T06:43:15.133Z,219.70
2023-05-19T06:44:15.164Z,217.73
2023-05-19T06:45:15.211Z,220.32
2023-05-19T06:46:15.289Z,225.69
2023-05-19T06:47:15.489Z,220.77
2023-05-19T06:48:15.426Z,223.43
2023-05-19T06:49:15.381Z,224.53
2023-05-19T06:50:15.367Z,219.74
2023-05-19T06:51:15.387Z,223.40
2023-05-19T06:52:15.392Z,220.70
2023-05-19T06:53:15.426Z,224.24
2023-05-19T06:54:15.422Z,226.18
2023-05-19T06:55:15.446Z,225.32
2023-05-19T06:56:15.462Z,220.99
2023-05-19T06:57:15.451Z,221.72
2023-05-19T06:58:15.496Z,227.14
2023-05-19T06:59:15.560Z,226.55
2023-05-19T07:00:18.314Z,229.67
2023-05-19T07:01:15.615Z,229.76
2023-05-19T07:02:15.612Z,230.19
2023-05-19T07:03:15.607Z,229.45
2023-05-19T07:04:15.572Z,232.18
2023-05-19T07:05:15.536Z,233.80
2023-05-19T07:06:15.549Z,231.25
2023-05-19T07:07:15.526Z,226.81
2023-05-19T07:08:15.540Z,231.85
2023-05-19T07:09:15.617Z,229.17
2023-05-19T07:10:15.526Z,226.96
2023-05-19T07:11:15.514Z,227.62
2023-05-19T07:12:15.505Z,225.21
2023-05-19T07:13:15.509Z,229.57
2023-05-19T07:14:15.502Z,232.22
2023-05-19T07:15:15.484Z,227.15
2023-05-19T07:16:15.521Z,226.42
2023-05-19T07:17:15.789Z,226.32
2023-05-19T07:18:15.466Z,228.83
2023-05-19T07:19:15.477Z,224.09
2023-05-19T07:20:15.449Z,224.84
2023-05-19T07:21:15.423Z,228.60
2023-05-19T07:22:15.435Z,223.62
2023-05-19T07:23:17.254Z,222.47
2023-05-19T07:24:15.431Z,219.15
2023-05-19T07:25:15.441Z,227.89
2023-05-19T07:26:15.485Z,234.12
2023-05-19T07:27:15.526Z,228.08
2023-05-19T07:28:15.557Z,231.67
2023-05-19T07:29:15.602Z,237.40
2023-05-19T07:30:15.629Z,232.99
2023-05-19T07:31:15.677Z,231.26
2023-05-19T07:32:15.847Z,231.15
2023-05-19T07:33:15.816Z,227.87
2023-05-19T07:34:15.830Z,235.90
2023-05-19T07:35:15.833Z,231.14
2023-05-19T07:36:15.892Z,228.43
2023-05-19T07:37:15.918Z,233.15
2023-05-19T07:38:15.962Z,231.11
2023-05-19T07:39:16.064Z,234.43
2023-05-19T07:40:16.041Z,240.92
2023-05-19T07:41:16.102Z,240.91
2023-05-19T07:42:16.091Z,241.21
2023-05-19T07:43:16.182Z,246.62
2023-05-19T07:44:16.210Z,248.34
2023-05-19T07:45:16.221Z,247.71
2023-05-19T07:46:16.387Z,245.23
2023-05-19T07:47:16.316Z,249.02
2023-05-19T07:48:16.453Z,250.00
2023-05-19T07:49:16.420Z,246.70
2023-05-19T07:50:16.444Z,249.52
2023-05-19T07:51:16.447Z,249.13
2023-05-19T07:52:16.480Z,246.57
2023-05-19T07:53:16.527Z,245.15
2023-05-19T07:54:16.561Z,250.00
2023-05-19T07:55:16.627Z,250.00
2023-05-19T07:56:16.624Z,250.00
2023-05-19T07:57:16.665Z,249.36
2023-05-19T07:58:16.681Z,247.74
2023-05-19T07:59:16.721Z,248.87
2023-05-19T08:00:16.730Z,249.38
2023-05-19T08:01:16.796Z,250.00
2023-05-19T08:02:16.839Z,245.88
2023-05-19T08:03:16.992Z,248.61
2023-05-19T08:04:17.033Z,250.00
2023-05-19T08:05:16.868Z,250.00
2023-05-19T08:06:16.917Z,249.23
2023-05-19T08:07:17.159Z,249.03
2023-05-19T08:08:17.063Z,249.66
2023-05-19T08:09:17.009Z,247.86
2023-05-19T08:10:17.051Z,247.66
2023-05-19T08:11:17.107Z,249.80
2023-05-19T08:12:17.141Z,247.99
2023-05-19T08:13:17.227Z,249.14
2023-05-19T08:14:17.231Z,250.39
2023-05-19T08:15:17.251Z,248.21
2023-05-19T08:16:17.415Z,249.13
2023-05-19T08:17:17.357Z,246.94
2023-05-19T08:18:17.346Z,245.33
2023-05-19T08:19:17.526Z,248.57
2023-05-19T08:20:17.404Z,250.00
2023-05-19T08:21:17.426Z,248.65
2023-05-19T08:22:17.446Z,246.79
2023-05-19T08:23:17.515Z,247.71
2023-05-19T08:24:17.563Z,249.45
2023-05-19T08:25:17.529Z,245.27
2023-05-19T08:26:17.558Z,243.32
2023-05-19T08:27:17.622Z,241.96
2023-05-19T08:28:17.610Z,240.64
2023-05-19T08:29:17.638Z,237.11
2023-05-19T08:30:17.633Z,235.26
2023-05-19T08:31:17.664Z,236.64
2023-05-19T08:32:17.657Z,238.52
2023-05-19T08:33:17.655Z,236.89
2023-05-19T08:34:17.683Z,237.39
2023-05-19T08:35:17.705Z,237.86
2023-05-19T08:36:17.720Z,237.66
2023-05-19T08:37:17.754Z,234.37
2023-05-19T08:38:17.821Z,235.41
2023-05-19T08:39:17.840Z,230.11
2023-05-19T08:40:17.871Z,228.15
2023-05-19T08:41:17.882Z,224.30
2023-05-19T08:42:17.881Z,224.85
2023-05-19T08:43:17.902Z,222.79
2023-05-19T08:44:19.030Z,224.29
2023-05-19T08:45:17.940Z,224.11
2023-05-19T08:46:17.976Z,219.62
2023-05-19T08:47:17.963Z,221.45
2023-05-19T08:48:17.998Z,225.62
2023-05-19T08:49:17.991Z,228.36
2023-05-19T08:50:18.036Z,231.39
2023-05-19T08:51:18.023Z,232.02
2023-05-19T08:52:18.093Z,230.25
2023-05-19T08:53:31.752Z,228.11
2023-05-19T08:54:19.090Z,228.16
2023-05-19T08:55:18.096Z,228.35
2023-05-19T08:56:18.088Z,228.53
2023-05-19T08:57:18.074Z,227.67
2023-05-19T08:58:18.061Z,230.48
2023-05-19T08:59:18.068Z,230.02
2023-05-19T09:00:18.054Z,225.22
2023-05-19T09:01:18.099Z,224.83
2023-05-19T09:02:18.055Z,221.93
2023-05-19T09:03:23.507Z,221.04
2023-05-19T09:04:19.109Z,221.07
2023-05-19T09:05:18.039Z,214.72
2023-05-19T09:06:18.002Z,210.25
2023-05-19T09:07:18.001Z,209.42
2023-05-19T09:08:17.998Z,205.48
2023-05-19T09:09:17.988Z,202.77
2023-05-19T09:10:17.971Z,201.52
2023-05-19T09:11:17.969Z,198.58
2023-05-19T09:12:17.977Z,201.11
2023-05-19T09:13:17.961Z,204.65
2023-05-19T09:14:17.967Z,212.22
2023-05-19T09:15:17.950Z,217.91
2023-05-19T09:16:18.013Z,219.31
2023-05-19T09:17:17.933Z,221.66
2023-05-19T09:18:17.946Z,223.54
2023-05-19T09:19:18.052Z,222.14
2023-05-19T09:20:18.023Z,224.12
2023-05-19T09:21:18.018Z,224.10
2023-05-19T09:22:18.044Z,227.37
2023-05-19T09:23:18.089Z,228.57
2023-05-19T09:24:18.148Z,229.46
2023-05-19T09:25:18.194Z,230.73
2023-05-19T09:26:18.158Z,233.12
2023-05-19T09:27:18.232Z,233.75
2023-05-19T09:28:18.201Z,229.59
2023-05-19T09:29:18.236Z,232.95
2023-05-19T09:30:18.228Z,236.11
2023-05-19T09:31:18.251Z,238.53
2023-05-19T09:32:18.302Z,239.16
2023-05-19T09:33:18.275Z,239.27
2023-05-19T09:34:18.253Z,238.34
2023-05-19T09:35:18.258Z,237.21
2023-05-19T09:36:18.294Z,235.98
2023-05-19T09:37:18.341Z,235.42
2023-05-19T09:38:18.298Z,233.93
2023-05-19T09:39:18.324Z,239.26
2023-05-19T09:40:18.377Z,238.82
2023-05-19T09:41:18.353Z,239.49
2023-05-19T09:42:18.358Z,238.19
2023-05-19T09:43:18.384Z,240.09
2023-05-19T09:44:18.402Z,236.30
2023-05-19T09:45:18.459Z,237.23
2023-05-19T09:46:18.555Z,234.75
2023-05-19T09:47:18.524Z,236.97
2023-05-19T09:48:18.560Z,236.45
2023-05-19T09:49:18.606Z,239.18
2023-05-19T09:50:18.735Z,236.75
2023-05-19T09:51:18.675Z,238.56
2023-05-19T09:52:18.721Z,236.73
2023-05-19T09:53:18.718Z,235.59
2023-05-19T09:54:18.735Z,235.47
2023-05-19T09:55:18.766Z,236.35
2023-05-19T09:56:18.788Z,235.71
2023-05-19T09:57:18.824Z,235.52
2023-05-19T09:58:18.890Z,235.25
2023-05-19T09:59:18.906Z,231.78
2023-05-19T10:00:18.924Z,230.57
2023-05-19T10:01:18.981Z,227.76
2023-05-19T10:02:18.978Z,228.36
2023-05-19T10:03:18.968Z,226.70
2023-05-19T10:04:18.968Z,224.12
2023-05-19T10:05:19.061Z,226.50
2023-05-19T10:06:19.011Z,225.36
2023-05-19T10:07:19.011Z,222.12
2023-05-19T10:08:19.078Z,221.94
2023-05-19T10:09:19.041Z,221.85
2023-05-19T10:10:19.085Z,221.62
2023-05-19T10:11:19.126Z,220.42
2023-05-19T10:12:19.173Z,221.22
2023-05-19T10:13:19.188Z,219.14
2023-05-19T10:14:19.219Z,219.80
2023-05-19T10:15:20.601Z,224.95
2023-05-19T10:16:19.219Z,220.69
2023-05-19T10:17:19.223Z,222.74
2023-05-19T10:18:19.257Z,224.78
2023-05-19T10:19:19.262Z,223.65
2023-05-19T10:20:19.194Z,217.33
2023-05-19T10:21:19.190Z,210.25
2023-05-19T10:22:19.178Z,208.05
2023-05-19T10:23:19.197Z,210.81
2023-05-19T10:24:19.172Z,205.90
2023-05-19T10:25:19.159Z,204.89
2023-05-19T10:26:19.157Z,203.14
2023-05-19T10:27:19.167Z,201.37
2023-05-19T10:28:19.156Z,203.31
2023-05-19T10:29:19.146Z,205.29
2023-05-19T10:30:19.115Z,205.05
2023-05-19T10:31:19.209Z,201.49
2023-05-19T10:32:19.194Z,198.88
2023-05-19T10:33:19.127Z,196.52
2023-05-19T10:34:19.156Z,194.95
2023-05-19T10:35:19.102Z,194.52
2023-05-19T10:36:19.085Z,195.23
2023-05-19T10:37:19.069Z,194.78
2023-05-19T10:38:19.091Z,192.31
2023-05-19T10:39:19.039Z,183.20
2023-05-19T10:40:19.056Z,182.05
2023-05-19T10:41:19.030Z,176.81
2023-05-19T10:42:19.038Z,180.81
2023-05-19T10:43:19.034Z,174.42
2023-05-19T10:44:19.026Z,179.96
2023-05-19T10:45:19.004Z,179.70
2023-05-19T10:46:19.179Z,176.50
2023-05-19T10:47:19.024Z,177.88
2023-05-19T10:48:18.983Z,180.61
2023-05-19T10:49:18.993Z,189.13
2023-05-19T10:50:19.000Z,189.01
2023-05-19T10:51:18.986Z,196.95
2023-05-19T10:52:18.966Z,197.17
2023-05-19T10:53:18.952Z,196.10
2023-05-19T10:54:18.941Z,197.66
2023-05-19T10:55:18.949Z,200.84
2023-05-19T10:56:18.925Z,198.57
2023-05-19T10:57:18.930Z,196.45
2023-05-19T10:58:18.920Z,198.44
2023-05-19T10:59:18.901Z,198.33
2023-05-19T11:00:18.919Z,197.72
2023-05-19T11:01:18.974Z,201.10
2023-05-19T11:02:18.989Z,202.03
2023-05-19T11:03:18.893Z,208.39
2023-05-19T11:04:18.922Z,204.97
2023-05-19T11:05:18.855Z,210.99
2023-05-19T11:06:18.877Z,206.17
2023-05-19T11:07:18.838Z,207.15
2023-05-19T11:08:18.873Z,207.58
2023-05-19T11:09:20.890Z,212.54
2023-05-19T11:10:19.833Z,209.48
2023-05-19T11:11:18.821Z,208.31
2023-05-19T11:12:18.804Z,206.51
2023-05-19T11:13:18.795Z,207.20
2023-05-19T11:14:18.786Z,210.10
2023-05-19T11:15:18.793Z,207.59
2023-05-19T11:16:18.840Z,209.42
2023-05-19T11:17:18.777Z,204.34
2023-05-19T11:18:18.756Z,204.16
2023-05-19T11:19:18.853Z,206.55
2023-05-19T11:20:18.816Z,208.85
2023-05-19T11:21:18.919Z,210.81
2023-05-19T11:22:18.903Z,213.36
2023-05-19T11:23:19.000Z,211.99
2023-05-19T11:24:18.979Z,210.20
2023-05-19T11:25:19.014Z,209.39
2023-05-19T11:26:19.062Z,208.56
2023-05-19T11:27:19.142Z,209.12
2023-05-19T11:28:19.342Z,209.93
2023-05-19T11:29:19.156Z,209.87
2023-05-19T11:30:19.232Z,204.96
2023-05-19T11:31:19.222Z,205.22
2023-05-19T11:32:19.404Z,203.30
2023-05-19T11:33:19.392Z,200.10
2023-05-19T11:34:19.301Z,200.41
2023-05-19T11:35:19.329Z,195.99
2023-05-19T11:36:19.340Z,193.13
2023-05-19T11:37:19.365Z,196.53
2023-05-19T11:38:19.338Z,202.14
2023-05-19T11:39:19.345Z,198.53
2023-05-19T11:40:19.353Z,194.34
2023-05-19T11:41:20.913Z,194.83
2023-05-19T11:42:19.428Z,192.50
2023-05-19T11:43:19.431Z,198.66
2023-05-19T11:44:19.455Z,195.09
2023-05-19T11:45:19.484Z,192.03
2023-05-19T11:46:19.589Z,190.22
2023-05-19T11:47:19.698Z,191.30
2023-05-19T11:48:19.580Z,188.72
2023-05-19T11:49:19.563Z,191.03
2023-05-19T11:50:19.599Z,187.74
2023-05-19T11:51:19.591Z,184.37
2023-05-19T11:52:19.606Z,177.79
2023-05-19T11:53:19.966Z,184.19
2023-05-19T11:54:19.677Z,183.03
2023-05-19T11:55:19.706Z,172.33
2023-05-19T11:56:19.749Z,177.49
2023-05-19T11:57:19.762Z,176.02
2023-05-19T11:58:19.767Z,178.21
2023-05-19T11:59:19.809Z,181.25
2023-05-19T12:00:19.801Z,175.57
2023-05-19T12:01:19.826Z,173.22
2023-05-19T12:02:19.909Z,173.27
2023-05-19T12:03:19.953Z,167.55
2023-05-19T12:04:19.902Z,172.54
2023-05-19T12:05:19.964Z,173.94
2023-05-19T12:06:19.983Z,168.17
2023-05-19T12:07:19.968Z,175.35
2023-05-19T12:08:19.953Z,169.48
2023-05-19T12:09:20.005Z,173.85
2023-05-19T12:10:19.992Z,173.31
2023-05-19T12:11:20.175Z,175.93
2023-05-19T12:12:20.037Z,180.36
2023-05-19T12:13:20.092Z,184.07
2023-05-19T12:14:20.097Z,184.05
2023-05-19T12:15:20.098Z,179.72
2023-05-19T12:16:20.232Z,183.23
2023-05-19T12:17:20.223Z,190.79
2023-05-19T12:18:20.223Z,194.69
2023-05-19T12:19:20.285Z,193.97
2023-05-19T12:20:20.215Z,195.60
2023-05-19T12:21:20.255Z,197.12
2023-05-19T12:22:20.250Z,198.54
2023-05-19T12:23:20.239Z,196.06
2023-05-19T12:24:20.266Z,201.87
2023-05-19T12:25:20.292Z,201.72
2023-05-19T12:26:20.319Z,200.97
2023-05-19T12:27:20.365Z,205.04
2023-05-19T12:28:20.388Z,207.80
2023-05-19T12:29:20.428Z,205.92